Bedford, PA

7:10 PM EST on December 19, 2014 (GMT -0500)
E South Street, along Juniata River | Change Station
CLOSE
Current Station
Personal Weather Station
Location: Everett, PA
Elevation: 1015 ft
Nearby Weather Stations

Elev 1015 ft 40.01 °N, 78.37 °W | Updated 7 minutes ago

Mostly Cloudy
Mostly Cloudy
28.9 °F
Feels Like 29 °F
N
0.0
Wind Variable Wind from NE

Today
High -- | Low -- °F
--% Chance of Precip.
Yesterday
High -- | Low -- °F
Precip. -- in
7:31 AM 4:51 PM
Waning Crescent, 5% visible
Pressure 30.23 in
Visibility 10.0 miles
Clouds Mostly Cloudy 2500 ft
Windchill 29 °F
Dew Point 22 °F
Humidity 75%
Rainfall 0.00 in
Snow Depth Not available.
UV 0 out of 12
Pollen .10 out of 12
Air Quality Not available.
Flu Activity Not available.
METAR KAOO 192353Z AUTO 31013G17KT 10SM BKN025 M03/M07 A3017 RMK AO2 SLP237 T10281072 11006 21028 51012

More Conditions Fewer Conditions

Pressure 30.23 in
Visibility 10.0 miles
Clouds Mostly Cloudy 2500 ft
Windchill 29 °F
Dew Point 22 °F
Humidity 75%
Rainfall 0.00 in
Snow Depth Not available.
UV 0 out of 12
Pollen .10 out of 12
Air Quality Not available.
Flu Activity Not available.
METAR KAOO 192353Z AUTO 31013G17KT 10SM BKN025 M03/M07 A3017 RMK AO2 SLP237 T10281072 11006 21028 51012

More Conditions Fewer Conditions

10-Day Weather Forecast

Almanac

Astronomy

Dec. 19, 2014 Rise Set
Actual Time
Civil Twilight
Nautical Twilight
Astronomical Twilight
Moon
Length of Visible Light
Length of Day
Tomorrow will be .
, % of the Moon is Illuminated

Today's Extremes

State Highs State Lows

Community

WunderPhotos

Upload Photos

1,779,084 photos uploaded!

WunderBlogs® & News

Nearby

Air Quality

  Air Quality AQ Index Pollutant
Not available.

Snow Depth

Station Depth Elevation

Earthquake Activity

City Distance Mag. Time & Date
Minimum magnitude displayed is 2.5.

Coastal Water Temperatures

Place Temperature

Nearby Weather Stations